createdAt,value
2019-03-18T00:00:53.239Z,0.00
2019-03-18T00:01:53.281Z,0.00
2019-03-18T00:02:53.309Z,0.00
2019-03-18T00:03:53.348Z,0.00
2019-03-18T00:04:53.380Z,0.00
2019-03-18T00:05:53.417Z,0.00
2019-03-18T00:06:53.462Z,0.00
2019-03-18T00:07:53.491Z,0.00
2019-03-18T00:08:53.524Z,0.00
2019-03-18T00:09:53.562Z,0.00
2019-03-18T00:10:53.596Z,0.00
2019-03-18T00:11:53.634Z,0.00
2019-03-18T00:12:53.769Z,0.00
2019-03-18T00:13:53.706Z,0.00
2019-03-18T00:15:01.246Z,0.00
2019-03-18T00:15:53.779Z,0.00
2019-03-18T00:16:53.812Z,0.00
2019-03-18T00:17:53.850Z,0.00
2019-03-18T00:18:53.885Z,0.00
2019-03-18T00:19:53.921Z,0.00
2019-03-18T00:20:53.959Z,0.00
2019-03-18T00:21:53.994Z,0.00
2019-03-18T00:22:54.031Z,0.00
2019-03-18T00:23:54.075Z,0.00
2019-03-18T00:24:54.099Z,0.00
2019-03-18T00:25:54.136Z,0.00
2019-03-18T00:26:54.172Z,0.00
2019-03-18T00:27:54.213Z,0.00
2019-03-18T00:28:54.245Z,0.00
2019-03-18T00:29:54.288Z,0.00
2019-03-18T00:30:54.322Z,0.00
2019-03-18T00:31:54.354Z,0.00
2019-03-18T00:32:54.402Z,0.00
2019-03-18T00:33:54.425Z,0.00
2019-03-18T00:34:54.463Z,0.00
2019-03-18T00:35:54.497Z,0.00
2019-03-18T00:36:54.532Z,0.00
2019-03-18T00:37:54.569Z,0.00
2019-03-18T00:38:54.604Z,0.00
2019-03-18T00:39:54.643Z,0.00
2019-03-18T00:40:54.677Z,0.00
2019-03-18T00:41:54.716Z,0.00
2019-03-18T00:42:54.750Z,0.00
2019-03-18T00:43:54.789Z,0.00
2019-03-18T00:44:54.821Z,0.00
2019-03-18T00:45:54.868Z,0.00
2019-03-18T00:46:54.895Z,0.00
2019-03-18T00:47:54.931Z,0.00
2019-03-18T00:48:54.971Z,0.00
2019-03-18T00:49:55.001Z,0.00
2019-03-18T00:50:55.042Z,0.00
2019-03-18T00:51:55.075Z,0.00
2019-03-18T00:52:55.122Z,0.00
2019-03-18T00:53:55.148Z,0.00
2019-03-18T00:54:55.183Z,0.00
2019-03-18T00:55:55.223Z,0.00
2019-03-18T00:56:55.255Z,0.00
2019-03-18T00:57:55.293Z,0.00
2019-03-18T00:58:55.326Z,0.00
2019-03-18T00:59:55.364Z,0.00
2019-03-18T01:00:55.400Z,0.00
2019-03-18T01:01:55.435Z,0.00
2019-03-18T01:02:55.472Z,0.00
2019-03-18T01:03:55.509Z,0.00
2019-03-18T01:04:55.544Z,0.00
2019-03-18T01:05:55.581Z,0.00
2019-03-18T01:06:55.616Z,0.00
2019-03-18T01:07:55.658Z,0.00
2019-03-18T01:08:55.699Z,0.00
2019-03-18T01:09:55.726Z,0.00
2019-03-18T01:10:55.770Z,0.00
2019-03-18T01:11:55.804Z,0.00
2019-03-18T01:12:55.837Z,0.00
2019-03-18T01:13:55.872Z,0.00
2019-03-18T01:14:55.915Z,0.00
2019-03-18T01:15:55.952Z,0.00
2019-03-18T01:16:55.980Z,0.00
2019-03-18T01:17:56.016Z,0.00
2019-03-18T01:18:56.052Z,0.00
2019-03-18T01:19:56.089Z,0.00
2019-03-18T01:20:56.128Z,0.00
2019-03-18T01:21:56.161Z,0.00
2019-03-18T01:22:56.202Z,0.00
2019-03-18T01:23:56.244Z,0.00
2019-03-18T01:24:56.270Z,0.00
2019-03-18T01:25:56.306Z,0.00
2019-03-18T01:26:56.343Z,0.00
2019-03-18T01:27:56.380Z,0.00
2019-03-18T01:28:56.424Z,0.00
2019-03-18T01:29:56.463Z,0.00
2019-03-18T01:30:56.491Z,0.00
2019-03-18T01:31:56.526Z,0.00
2019-03-18T01:32:56.564Z,0.00
2019-03-18T01:33:56.597Z,0.00
2019-03-18T01:34:56.633Z,0.00
2019-03-18T01:35:56.670Z,0.00
2019-03-18T01:36:56.712Z,0.00
2019-03-18T01:37:56.741Z,0.00
2019-03-18T01:38:56.778Z,0.00
2019-03-18T01:39:56.823Z,0.00
2019-03-18T01:40:56.850Z,0.00
2019-03-18T01:41:56.888Z,0.00
2019-03-18T01:42:56.924Z,0.00
2019-03-18T01:43:56.966Z,0.00
2019-03-18T01:44:56.995Z,0.00
2019-03-18T01:45:57.032Z,0.00
2019-03-18T01:46:57.078Z,0.00
2019-03-18T01:47:57.106Z,0.00
2019-03-18T01:48:57.142Z,0.00
2019-03-18T01:49:57.179Z,0.00
2019-03-18T01:50:57.213Z,0.00
2019-03-18T01:51:57.250Z,0.00
2019-03-18T01:52:57.286Z,0.00
2019-03-18T01:53:57.323Z,0.00
2019-03-18T01:54:57.358Z,0.00
2019-03-18T01:55:57.397Z,0.00
2019-03-18T01:56:57.434Z,0.00
2019-03-18T01:57:57.518Z,0.00
2019-03-18T01:58:57.506Z,0.00
2019-03-18T01:59:57.541Z,0.00
2019-03-18T02:00:57.576Z,0.00
2019-03-18T02:01:57.613Z,0.00
2019-03-18T02:02:57.653Z,0.00
2019-03-18T02:03:57.688Z,0.00
2019-03-18T02:04:57.724Z,0.00
2019-03-18T02:05:57.758Z,0.00
2019-03-18T02:06:57.798Z,0.00
2019-03-18T02:07:57.831Z,0.00
2019-03-18T02:08:57.870Z,0.00
2019-03-18T02:09:57.903Z,0.00
2019-03-18T02:10:57.941Z,0.00
2019-03-18T02:11:57.976Z,0.00
2019-03-18T02:12:58.012Z,0.00
2019-03-18T02:13:58.048Z,0.00
2019-03-18T02:14:58.086Z,0.00
2019-03-18T02:15:58.125Z,0.00
2019-03-18T02:16:58.163Z,0.00
2019-03-18T02:17:58.196Z,0.00
2019-03-18T02:18:58.231Z,0.00
2019-03-18T02:19:58.267Z,0.00
2019-03-18T02:20:58.303Z,0.00
2019-03-18T02:21:58.341Z,0.00
2019-03-18T02:22:58.378Z,0.00
2019-03-18T02:23:58.416Z,0.00
2019-03-18T02:24:58.455Z,0.00
2019-03-18T02:25:58.486Z,0.00
2019-03-18T02:26:58.522Z,0.00
2019-03-18T02:27:58.557Z,0.00
2019-03-18T02:28:58.595Z,0.00
2019-03-18T02:29:58.630Z,0.00
2019-03-18T02:30:58.667Z,0.00
2019-03-18T02:31:58.721Z,0.00
2019-03-18T02:32:58.740Z,0.00
2019-03-18T02:33:58.781Z,0.00
2019-03-18T02:34:58.814Z,0.00
2019-03-18T02:35:58.853Z,0.00
2019-03-18T02:36:58.892Z,0.00
2019-03-18T02:37:58.923Z,0.00
2019-03-18T02:38:58.959Z,0.00
2019-03-18T02:39:59.003Z,0.00
2019-03-18T02:40:59.029Z,0.00
2019-03-18T02:41:59.065Z,0.00
2019-03-18T02:42:59.102Z,0.00
2019-03-18T02:43:59.166Z,0.00
2019-03-18T02:44:59.174Z,0.00
2019-03-18T02:46:09.859Z,0.00
2019-03-18T02:46:59.248Z,0.00
2019-03-18T02:47:59.286Z,0.00
2019-03-18T02:48:59.318Z,0.00
2019-03-18T02:49:59.357Z,0.00
2019-03-18T02:50:59.393Z,0.00
2019-03-18T02:51:59.434Z,0.00
2019-03-18T02:52:59.467Z,0.00
2019-03-18T02:53:59.615Z,0.00
2019-03-18T02:54:59.539Z,0.00
2019-03-18T02:55:59.589Z,0.00
2019-03-18T02:56:59.612Z,0.00
2019-03-18T02:57:59.649Z,0.00
2019-03-18T02:58:59.694Z,0.00
2019-03-18T02:59:59.722Z,0.00
2019-03-18T03:00:59.768Z,0.00
2019-03-18T03:01:59.802Z,0.00
2019-03-18T03:02:59.830Z,0.00
2019-03-18T03:03:59.886Z,0.00
2019-03-18T03:04:59.905Z,0.00
2019-03-18T03:05:59.938Z,0.00
2019-03-18T03:06:59.988Z,0.00
2019-03-18T03:08:00.014Z,0.00
2019-03-18T03:09:00.056Z,0.00
2019-03-18T03:10:00.217Z,0.00
2019-03-18T03:11:00.122Z,0.00
2019-03-18T03:12:00.156Z,0.00
2019-03-18T03:13:00.194Z,0.00
2019-03-18T03:14:00.241Z,0.00
2019-03-18T03:15:00.508Z,0.00
2019-03-18T03:16:00.310Z,0.00
2019-03-18T03:17:00.346Z,0.00
2019-03-18T03:18:00.377Z,0.00
2019-03-18T03:19:00.411Z,0.00
2019-03-18T03:20:00.568Z,0.00
2019-03-18T03:21:00.482Z,0.00
2019-03-18T03:22:00.524Z,0.00
2019-03-18T03:23:00.566Z,0.00
2019-03-18T03:24:00.598Z,0.00
2019-03-18T03:25:00.640Z,0.00
2019-03-18T03:26:00.665Z,0.00
2019-03-18T03:27:00.702Z,0.00
2019-03-18T03:28:00.743Z,0.00
2019-03-18T03:29:00.774Z,0.00
2019-03-18T03:30:00.813Z,0.00
2019-03-18T03:31:00.848Z,0.00
2019-03-18T03:32:00.890Z,0.00
2019-03-18T03:33:00.941Z,0.00
2019-03-18T03:34:00.957Z,0.00
2019-03-18T03:35:01.390Z,0.00
2019-03-18T03:36:01.029Z,0.00
2019-03-18T03:37:01.070Z,0.00
2019-03-18T03:38:01.104Z,0.00
2019-03-18T03:39:01.139Z,0.00
2019-03-18T03:40:01.443Z,0.00
2019-03-18T03:41:01.211Z,0.00
2019-03-18T03:42:01.248Z,0.00
2019-03-18T03:43:01.283Z,0.00
2019-03-18T03:44:01.320Z,0.00
2019-03-18T03:45:01.373Z,0.00
2019-03-18T03:46:01.392Z,0.00
2019-03-18T03:47:01.429Z,0.00
2019-03-18T03:48:01.490Z,0.00
2019-03-18T03:49:01.503Z,0.00
2019-03-18T03:50:01.538Z,0.00
2019-03-18T03:51:01.573Z,0.00
2019-03-18T03:52:01.711Z,0.00
2019-03-18T03:53:01.646Z,0.00
2019-03-18T03:54:01.681Z,0.00
2019-03-18T03:55:01.740Z,0.00
2019-03-18T03:56:01.755Z,0.00
2019-03-18T03:57:01.793Z,0.00
2019-03-18T03:58:01.828Z,0.00
2019-03-18T03:59:01.874Z,0.00
2019-03-18T04:00:01.951Z,0.00
2019-03-18T04:01:01.943Z,0.00
2019-03-18T04:02:01.977Z,0.00
2019-03-18T04:03:02.042Z,0.00
2019-03-18T04:04:02.052Z,0.00
2019-03-18T04:05:02.092Z,0.00
2019-03-18T04:06:02.123Z,0.00
2019-03-18T04:07:02.163Z,0.00
2019-03-18T04:08:02.199Z,0.00
2019-03-18T04:09:02.231Z,0.00
2019-03-18T04:10:02.269Z,0.00
2019-03-18T04:11:02.363Z,0.00
2019-03-18T04:12:02.356Z,0.00
2019-03-18T04:13:02.384Z,0.00
2019-03-18T04:14:02.422Z,0.00
2019-03-18T04:15:02.462Z,0.00
2019-03-18T04:16:02.492Z,0.00
2019-03-18T04:17:03.050Z,0.00
2019-03-18T04:18:02.574Z,0.00
2019-03-18T04:19:02.613Z,0.00
2019-03-18T04:20:02.635Z,0.00
2019-03-18T04:21:02.680Z,0.00
2019-03-18T04:22:02.707Z,0.00
2019-03-18T04:23:02.755Z,0.00
2019-03-18T04:24:02.785Z,0.00
2019-03-18T04:25:02.816Z,0.00
2019-03-18T04:26:02.868Z,0.00
2019-03-18T04:27:02.943Z,0.00
2019-03-18T04:28:02.936Z,0.00
2019-03-18T04:29:02.974Z,0.00
2019-03-18T04:30:03.002Z,0.00
2019-03-18T04:31:03.036Z,0.00
2019-03-18T04:32:03.078Z,0.00
2019-03-18T04:33:03.111Z,0.00
2019-03-18T04:34:03.150Z,0.00
2019-03-18T04:35:03.196Z,0.00
2019-03-18T04:36:03.249Z,0.00
2019-03-18T04:37:03.272Z,0.00
2019-03-18T04:38:03.298Z,0.00
2019-03-18T04:39:03.336Z,0.00
2019-03-18T04:40:03.367Z,0.00
2019-03-18T04:41:03.407Z,0.00
2019-03-18T04:42:03.437Z,0.00
2019-03-18T04:43:03.534Z,0.00
2019-03-18T04:44:03.511Z,0.00
2019-03-18T04:45:03.546Z,0.00
2019-03-18T04:46:03.589Z,0.00
2019-03-18T04:47:13.690Z,0.00
2019-03-18T04:48:03.657Z,0.00
2019-03-18T04:49:03.694Z,0.00
2019-03-18T04:50:03.728Z,0.00
2019-03-18T04:51:03.764Z,0.00
2019-03-18T04:52:03.811Z,0.00
2019-03-18T04:53:03.837Z,0.00
2019-03-18T04:54:03.873Z,0.00
2019-03-18T04:55:03.909Z,0.00
2019-03-18T04:56:03.947Z,0.00
2019-03-18T04:57:03.982Z,0.00
2019-03-18T04:58:04.021Z,0.00
2019-03-18T04:59:04.058Z,4.00
2019-03-18T05:00:04.099Z,4.00
2019-03-18T05:01:04.128Z,4.00
2019-03-18T05:02:04.166Z,4.00
2019-03-18T05:03:04.204Z,4.00
2019-03-18T05:04:04.241Z,8.00
2019-03-18T05:05:04.274Z,4.00
2019-03-18T05:06:04.311Z,8.00
2019-03-18T05:07:04.348Z,8.00
2019-03-18T05:08:04.383Z,12.00
2019-03-18T05:09:04.421Z,16.00
2019-03-18T05:10:04.461Z,16.00
2019-03-18T05:11:04.492Z,16.00
2019-03-18T05:12:04.547Z,20.00
2019-03-18T05:13:04.569Z,20.00
2019-03-18T05:14:04.608Z,24.00
2019-03-18T05:15:04.640Z,28.00
2019-03-18T05:16:04.682Z,36.00
2019-03-18T05:17:04.711Z,48.00
2019-03-18T05:18:04.746Z,56.00
2019-03-18T05:19:04.784Z,68.00
2019-03-18T05:20:04.823Z,80.00
2019-03-18T05:21:04.856Z,96.00
2019-03-18T05:22:04.890Z,108.00
2019-03-18T05:23:04.931Z,124.00
2019-03-18T05:24:04.965Z,136.00
2019-03-18T05:25:04.999Z,152.00
2019-03-18T05:26:05.035Z,172.00
2019-03-18T05:27:05.116Z,192.00
2019-03-18T05:28:05.109Z,216.00
2019-03-18T05:29:05.146Z,228.00
2019-03-18T05:30:05.180Z,236.00
2019-03-18T05:31:05.226Z,248.00
2019-03-18T05:32:05.258Z,260.00
2019-03-18T05:33:05.296Z,288.00
2019-03-18T05:34:05.327Z,340.00
2019-03-18T05:35:05.365Z,396.00
2019-03-18T05:36:05.402Z,428.00
2019-03-18T05:37:05.435Z,484.00
2019-03-18T05:38:05.476Z,556.00
2019-03-18T05:39:05.520Z,620.00
2019-03-18T05:40:05.556Z,756.00
2019-03-18T05:41:05.729Z,916.00
2019-03-18T05:42:05.618Z,1040.00
2019-03-18T05:43:05.653Z,1060.00
2019-03-18T05:44:07.923Z,1072.00
2019-03-18T05:45:05.727Z,1092.00
2019-03-18T05:46:05.771Z,1120.00
2019-03-18T05:47:05.801Z,1072.00
2019-03-18T05:48:05.836Z,1020.00
2019-03-18T05:49:05.873Z,976.00
2019-03-18T05:50:05.910Z,948.00
2019-03-18T05:51:05.945Z,920.00
2019-03-18T05:52:05.983Z,896.00
2019-03-18T05:53:06.017Z,868.00
2019-03-18T05:54:06.059Z,848.00
2019-03-18T05:55:06.093Z,820.00
2019-03-18T05:56:06.130Z,812.00
2019-03-18T05:57:06.176Z,832.00
2019-03-18T05:58:06.201Z,860.00
2019-03-18T05:59:06.236Z,872.00
2019-03-18T06:00:06.284Z,840.00
2019-03-18T06:01:06.323Z,836.00
2019-03-18T06:02:06.361Z,916.00
2019-03-18T06:03:06.392Z,1020.00
2019-03-18T06:04:06.422Z,1080.00
2019-03-18T06:05:06.466Z,1084.00
2019-03-18T06:06:06.493Z,1184.00
2019-03-18T06:07:06.535Z,1352.00
2019-03-18T06:08:06.568Z,1512.00
2019-03-18T06:09:06.608Z,1704.00
2019-03-18T06:10:06.644Z,1824.00
2019-03-18T06:11:06.681Z,1784.00
2019-03-18T06:12:06.717Z,1792.00
2019-03-18T06:13:06.753Z,1864.00
2019-03-18T06:14:06.791Z,1984.00
2019-03-18T06:15:06.832Z,2148.00
2019-03-18T06:16:06.865Z,2156.00
2019-03-18T06:17:06.900Z,2012.00
2019-03-18T06:18:06.949Z,1916.00
2019-03-18T06:19:06.978Z,1956.00
2019-03-18T06:20:07.017Z,1864.00
2019-03-18T06:21:07.049Z,1584.00
2019-03-18T06:22:07.086Z,1508.00
2019-03-18T06:23:07.125Z,1612.00
2019-03-18T06:24:07.175Z,1672.00
2019-03-18T06:25:07.197Z,1716.00
2019-03-18T06:26:07.235Z,1808.00
2019-03-18T06:27:07.272Z,1948.00
2019-03-18T06:28:07.315Z,2112.00
2019-03-18T06:29:07.343Z,2212.00
2019-03-18T06:30:07.384Z,2292.00
2019-03-18T06:31:07.532Z,2292.00
2019-03-18T06:32:07.458Z,2224.00
2019-03-18T06:33:07.492Z,2484.00
2019-03-18T06:34:07.536Z,3012.00
2019-03-18T06:35:07.564Z,3568.00
2019-03-18T06:36:07.605Z,3888.00
2019-03-18T06:37:07.640Z,4288.00
2019-03-18T06:38:07.677Z,4708.00
2019-03-18T06:39:07.714Z,4652.00
2019-03-18T06:40:07.751Z,4712.00
2019-03-18T06:41:07.789Z,5140.00
2019-03-18T06:42:07.824Z,5620.00
2019-03-18T06:43:07.890Z,5956.00
2019-03-18T06:44:07.906Z,6420.00
2019-03-18T06:45:07.938Z,6576.00
2019-03-18T06:46:07.976Z,6220.00
2019-03-18T06:47:08.010Z,5580.00
2019-03-18T06:48:09.242Z,4432.00
2019-03-18T06:49:08.087Z,3392.00
2019-03-18T06:50:08.120Z,2880.00
2019-03-18T06:51:08.160Z,2724.00
2019-03-18T06:52:08.201Z,3016.00
2019-03-18T06:53:08.236Z,3216.00
2019-03-18T06:54:08.271Z,3476.00
2019-03-18T06:55:08.310Z,3424.00
2019-03-18T06:56:08.349Z,3112.00
2019-03-18T06:57:08.385Z,3024.00
2019-03-18T06:58:08.466Z,2976.00
2019-03-18T06:59:08.461Z,2652.00
2019-03-18T07:00:08.496Z,2640.00
2019-03-18T07:01:08.532Z,3000.00
2019-03-18T07:02:08.625Z,3196.00
2019-03-18T07:03:08.606Z,3496.00
2019-03-18T07:04:08.645Z,3776.00
2019-03-18T07:05:08.690Z,4356.00
2019-03-18T07:06:08.734Z,4648.00
2019-03-18T07:07:08.760Z,4744.00
2019-03-18T07:08:08.794Z,4948.00
2019-03-18T07:09:08.879Z,5200.00
2019-03-18T07:10:08.867Z,5556.00
2019-03-18T07:11:08.908Z,6268.00
2019-03-18T07:12:08.943Z,7020.00
2019-03-18T07:13:08.992Z,7352.00
2019-03-18T07:14:09.027Z,7188.00
2019-03-18T07:15:09.059Z,6972.00
2019-03-18T07:16:09.094Z,6992.00
2019-03-18T07:17:09.129Z,7192.00
2019-03-18T07:18:18.337Z,7440.00
2019-03-18T07:19:09.208Z,7600.00
2019-03-18T07:20:09.242Z,7660.00
2019-03-18T07:21:09.342Z,7928.00
2019-03-18T07:22:09.319Z,8376.00
2019-03-18T07:23:09.354Z,8744.00
2019-03-18T07:24:09.396Z,9068.00
2019-03-18T07:25:09.589Z,9260.00
2019-03-18T07:26:09.468Z,8880.00
2019-03-18T07:27:09.511Z,8468.00
2019-03-18T07:28:09.549Z,8240.00
2019-03-18T07:29:09.583Z,8360.00
2019-03-18T07:30:09.628Z,8504.00
2019-03-18T07:31:09.657Z,8940.00
2019-03-18T07:32:09.694Z,9324.00
2019-03-18T07:33:09.731Z,9512.00
2019-03-18T07:34:09.768Z,9696.00
2019-03-18T07:35:09.814Z,8796.00
2019-03-18T07:36:09.846Z,7504.00
2019-03-18T07:37:09.884Z,6772.00
2019-03-18T07:38:09.920Z,6868.00
2019-03-18T07:39:09.958Z,7248.00
2019-03-18T07:40:11.189Z,7392.00
2019-03-18T07:41:10.033Z,7072.00
2019-03-18T07:42:10.080Z,7244.00
2019-03-18T07:43:10.111Z,7972.00
2019-03-18T07:44:10.148Z,9060.00
2019-03-18T07:45:10.192Z,8384.00
2019-03-18T07:46:10.223Z,8036.00
2019-03-18T07:47:10.261Z,8172.00
2019-03-18T07:48:12.448Z,8512.00
2019-03-18T07:49:10.345Z,8964.00
2019-03-18T07:50:10.384Z,9420.00
2019-03-18T07:51:10.422Z,9680.00
2019-03-18T07:52:10.453Z,9064.00
2019-03-18T07:53:10.489Z,7340.00
2019-03-18T07:54:10.531Z,6268.00
2019-03-18T07:55:10.567Z,6180.00
2019-03-18T07:56:10.606Z,6304.00
2019-03-18T07:57:10.652Z,6628.00
2019-03-18T07:58:10.680Z,7072.00
2019-03-18T07:59:10.720Z,7292.00
2019-03-18T08:00:10.758Z,7216.00
2019-03-18T08:01:10.797Z,7076.00
2019-03-18T08:02:10.838Z,6856.00
2019-03-18T08:03:10.874Z,6840.00
2019-03-18T08:04:10.909Z,7052.00
2019-03-18T08:05:10.948Z,7240.00
2019-03-18T08:06:10.994Z,7464.00
2019-03-18T08:07:11.023Z,7576.00
2019-03-18T08:08:11.064Z,7612.00
2019-03-18T08:09:11.100Z,7736.00
2019-03-18T08:10:11.139Z,7584.00
2019-03-18T08:11:11.178Z,7444.00
2019-03-18T08:12:11.216Z,7556.00
2019-03-18T08:13:11.271Z,7500.00
2019-03-18T08:14:11.293Z,7464.00
2019-03-18T08:15:11.394Z,8096.00
2019-03-18T08:16:11.377Z,8712.00
2019-03-18T08:17:11.416Z,8672.00
2019-03-18T08:18:11.445Z,8948.00
2019-03-18T08:19:11.484Z,9536.00
2019-03-18T08:20:11.524Z,9888.00
2019-03-18T08:21:11.561Z,8668.00
2019-03-18T08:22:11.606Z,7632.00
2019-03-18T08:23:11.639Z,6592.00
2019-03-18T08:24:11.676Z,6652.00
2019-03-18T08:25:11.720Z,8120.00
2019-03-18T08:26:11.754Z,7192.00
2019-03-18T08:27:11.791Z,5360.00
2019-03-18T08:28:11.830Z,4464.00
2019-03-18T08:29:11.869Z,4464.00
2019-03-18T08:30:11.907Z,5020.00
2019-03-18T08:31:11.943Z,5952.00
2019-03-18T08:32:12.057Z,6088.00
2019-03-18T08:33:12.019Z,5168.00
2019-03-18T08:34:12.058Z,4812.00
2019-03-18T08:35:12.099Z,4444.00
2019-03-18T08:36:12.134Z,4392.00
2019-03-18T08:37:12.174Z,4628.00
2019-03-18T08:38:12.210Z,5160.00
2019-03-18T08:39:12.262Z,5808.00
2019-03-18T08:40:12.297Z,6032.00
2019-03-18T08:41:12.323Z,5516.00
2019-03-18T08:42:12.361Z,5760.00
2019-03-18T08:43:12.403Z,5692.00
2019-03-18T08:44:12.486Z,5192.00
2019-03-18T08:45:12.479Z,5360.00
2019-03-18T08:46:12.513Z,6780.00
2019-03-18T08:47:12.551Z,7560.00
2019-03-18T08:48:12.588Z,7488.00
2019-03-18T08:49:12.627Z,7956.00
2019-03-18T08:50:13.000Z,7704.00
2019-03-18T08:51:12.702Z,8288.00
2019-03-18T08:52:12.739Z,9560.00
2019-03-18T08:53:12.776Z,9848.00
2019-03-18T08:54:12.818Z,9496.00
2019-03-18T08:55:12.855Z,9240.00
2019-03-18T08:56:12.894Z,11140.00
2019-03-18T08:57:13.001Z,12568.00
2019-03-18T08:58:13.018Z,13036.00
2019-03-18T08:59:13.004Z,12020.00
2019-03-18T09:00:13.044Z,11644.00
2019-03-18T09:01:13.082Z,12360.00
2019-03-18T09:02:13.120Z,11028.00
2019-03-18T09:03:13.158Z,9048.00
2019-03-18T09:04:13.195Z,9220.00
2019-03-18T09:05:13.246Z,9452.00
2019-03-18T09:06:13.274Z,11368.00
2019-03-18T09:07:13.311Z,11476.00
2019-03-18T09:08:13.351Z,9756.00
2019-03-18T09:09:13.395Z,9492.00
2019-03-18T09:10:13.425Z,10640.00
2019-03-18T09:11:13.464Z,11636.00
2019-03-18T09:12:13.504Z,11016.00
2019-03-18T09:13:13.541Z,10008.00
2019-03-18T09:14:13.579Z,10996.00
2019-03-18T09:15:13.624Z,11736.00
2019-03-18T09:16:13.656Z,13252.00
2019-03-18T09:17:13.695Z,12028.00
2019-03-18T09:18:13.742Z,12372.00
2019-03-18T09:19:13.774Z,11600.00
2019-03-18T09:20:13.812Z,11676.00
2019-03-18T09:21:13.850Z,12284.00
2019-03-18T09:22:13.889Z,13260.00
2019-03-18T09:23:13.928Z,12648.00
2019-03-18T09:24:13.968Z,12200.00
2019-03-18T09:25:14.007Z,13164.00
2019-03-18T09:26:14.057Z,14136.00
2019-03-18T09:27:14.083Z,13600.00
2019-03-18T09:28:14.125Z,12396.00
2019-03-18T09:29:14.164Z,12092.00
2019-03-18T09:30:14.207Z,12780.00
2019-03-18T09:31:14.307Z,14900.00
2019-03-18T09:32:14.289Z,14604.00
2019-03-18T09:33:14.323Z,12972.00
2019-03-18T09:34:14.359Z,12652.00
2019-03-18T09:35:14.408Z,13568.00
2019-03-18T09:36:14.439Z,13928.00
2019-03-18T09:37:14.485Z,10892.00
2019-03-18T09:38:14.516Z,9968.00
2019-03-18T09:39:14.556Z,11292.00
2019-03-18T09:40:14.595Z,12464.00
2019-03-18T09:41:14.637Z,13364.00
2019-03-18T09:42:14.682Z,15780.00
2019-03-18T09:43:14.713Z,16172.00
2019-03-18T09:44:14.756Z,14780.00
2019-03-18T09:45:14.793Z,12276.00
2019-03-18T09:46:14.834Z,10992.00
2019-03-18T09:47:14.874Z,10532.00
2019-03-18T09:48:14.922Z,10940.00
2019-03-18T09:49:21.645Z,13500.00
2019-03-18T09:50:14.995Z,15552.00
2019-03-18T09:51:15.038Z,16608.00
2019-03-18T09:52:15.092Z,17536.00
2019-03-18T09:53:15.111Z,16704.00
2019-03-18T09:54:15.160Z,16352.00
2019-03-18T09:55:15.192Z,17376.00
2019-03-18T09:56:15.242Z,15172.00
2019-03-18T09:57:25.534Z,10080.00
2019-03-18T09:58:15.325Z,9112.00
2019-03-18T09:59:15.353Z,10552.00
2019-03-18T10:00:15.393Z,11796.00
2019-03-18T10:01:15.434Z,12056.00
2019-03-18T10:02:15.486Z,12168.00
2019-03-18T10:03:15.515Z,13240.00
2019-03-18T10:04:15.563Z,13096.00
2019-03-18T10:05:15.594Z,13196.00
2019-03-18T10:06:15.641Z,12712.00
2019-03-18T10:07:15.673Z,11968.00
2019-03-18T10:08:15.716Z,12224.00
2019-03-18T10:09:15.806Z,11460.00
2019-03-18T10:10:15.801Z,10856.00
2019-03-18T10:11:15.852Z,12704.00
2019-03-18T10:12:15.878Z,12708.00
2019-03-18T10:13:15.924Z,10116.00
2019-03-18T10:14:16.027Z,8112.00
2019-03-18T10:15:16.001Z,6980.00
2019-03-18T10:16:16.035Z,6088.00
2019-03-18T10:17:16.079Z,7568.00
2019-03-18T10:18:16.114Z,9980.00
2019-03-18T10:19:16.156Z,11228.00
2019-03-18T10:20:16.196Z,12660.00
2019-03-18T10:21:16.238Z,13996.00
2019-03-18T10:22:16.278Z,15260.00
2019-03-18T10:23:16.318Z,13352.00
2019-03-18T10:24:16.356Z,11672.00
2019-03-18T10:25:16.403Z,10788.00
2019-03-18T10:26:16.446Z,10516.00
2019-03-18T10:27:16.475Z,11372.00
2019-03-18T10:28:16.722Z,13608.00
2019-03-18T10:29:16.556Z,16960.00
2019-03-18T10:30:16.600Z,16992.00
2019-03-18T10:31:16.636Z,13776.00
2019-03-18T10:32:16.678Z,10716.00
2019-03-18T10:33:16.718Z,8112.00
2019-03-18T10:34:16.756Z,6404.00
2019-03-18T10:35:16.796Z,5368.00
2019-03-18T10:36:16.832Z,4068.00
2019-03-18T10:37:16.874Z,3512.00
2019-03-18T10:38:16.926Z,3056.00
2019-03-18T10:39:16.949Z,2800.00
2019-03-18T10:40:16.991Z,3676.00
2019-03-18T10:41:17.028Z,5532.00
2019-03-18T10:42:17.066Z,6284.00
2019-03-18T10:43:17.107Z,6280.00
2019-03-18T10:44:17.161Z,5876.00
2019-03-18T10:45:17.182Z,5368.00
2019-03-18T10:46:17.223Z,4664.00
2019-03-18T10:47:17.269Z,4324.00
2019-03-18T10:48:17.307Z,4120.00
2019-03-18T10:49:17.337Z,3900.00
2019-03-18T10:50:17.387Z,3788.00
2019-03-18T10:51:17.414Z,3856.00
2019-03-18T10:52:17.453Z,4008.00
2019-03-18T10:53:17.536Z,4296.00
2019-03-18T10:54:29.951Z,4796.00
2019-03-18T10:55:17.576Z,5020.00
2019-03-18T10:56:17.608Z,4768.00
2019-03-18T10:57:17.644Z,4648.00
2019-03-18T10:58:18.167Z,4220.00
2019-03-18T10:59:17.722Z,3968.00
2019-03-18T11:00:17.763Z,3896.00
2019-03-18T11:01:17.796Z,3904.00
2019-03-18T11:02:17.847Z,3932.00
2019-03-18T11:03:17.888Z,3972.00
2019-03-18T11:04:17.914Z,4048.00
2019-03-18T11:05:17.951Z,4108.00
2019-03-18T11:06:17.988Z,4160.00
2019-03-18T11:07:18.028Z,4140.00
2019-03-18T11:08:18.063Z,4160.00
2019-03-18T11:09:18.099Z,4028.00
2019-03-18T11:10:18.137Z,4060.00
2019-03-18T11:11:18.178Z,4172.00
2019-03-18T11:12:18.214Z,4404.00
2019-03-18T11:13:18.259Z,4816.00
2019-03-18T11:14:18.288Z,5208.00
2019-03-18T11:15:18.327Z,5636.00
2019-03-18T11:16:18.365Z,6060.00
2019-03-18T11:17:18.401Z,6764.00
2019-03-18T11:18:18.439Z,7888.00
2019-03-18T11:19:18.477Z,9440.00
2019-03-18T11:20:18.525Z,10320.00
2019-03-18T11:21:18.553Z,10208.00
2019-03-18T11:22:18.591Z,9864.00
2019-03-18T11:23:18.632Z,9120.00
2019-03-18T11:24:18.675Z,8484.00
2019-03-18T11:25:18.712Z,7936.00
2019-03-18T11:26:18.743Z,7344.00
2019-03-18T11:27:18.781Z,7300.00
2019-03-18T11:28:18.819Z,7744.00
2019-03-18T11:29:18.856Z,8968.00
2019-03-18T11:30:18.902Z,10844.00
2019-03-18T11:31:18.937Z,12612.00
2019-03-18T11:32:18.970Z,12844.00
2019-03-18T11:33:19.018Z,11300.00
2019-03-18T11:34:19.048Z,9228.00
2019-03-18T11:35:19.086Z,7664.00
2019-03-18T11:36:19.128Z,6476.00
2019-03-18T11:37:19.163Z,6720.00
2019-03-18T11:38:19.201Z,8556.00
2019-03-18T11:39:19.239Z,10056.00
2019-03-18T11:40:19.286Z,9964.00
2019-03-18T11:41:19.318Z,8636.00
2019-03-18T11:42:19.367Z,7584.00
2019-03-18T11:43:19.394Z,7568.00
2019-03-18T11:44:19.431Z,8764.00
2019-03-18T11:45:19.469Z,9796.00
2019-03-18T11:46:19.510Z,9520.00
2019-03-18T11:47:19.553Z,9292.00
2019-03-18T11:48:19.587Z,9476.00
2019-03-18T11:49:19.625Z,9232.00
2019-03-18T11:50:19.663Z,9524.00
2019-03-18T11:51:19.701Z,9524.00
2019-03-18T11:52:19.740Z,9740.00
2019-03-18T11:53:19.785Z,10432.00
2019-03-18T11:54:20.003Z,10608.00
2019-03-18T11:55:19.857Z,9992.00
2019-03-18T11:56:19.898Z,9348.00
2019-03-18T11:57:19.941Z,8808.00
2019-03-18T11:58:19.980Z,8612.00
2019-03-18T11:59:21.147Z,8796.00
2019-03-18T12:00:20.053Z,11304.00
2019-03-18T12:01:20.095Z,14540.00
2019-03-18T12:02:27.653Z,17344.00
2019-03-18T12:03:20.167Z,18656.00
2019-03-18T12:04:20.209Z,18464.00
2019-03-18T12:05:20.253Z,16896.00
2019-03-18T12:06:20.286Z,15244.00
2019-03-18T12:07:20.327Z,14576.00
2019-03-18T12:08:20.364Z,14812.00
2019-03-18T12:09:20.404Z,14564.00
2019-03-18T12:10:20.449Z,12956.00
2019-03-18T12:11:20.483Z,11012.00
2019-03-18T12:12:20.523Z,9164.00
2019-03-18T12:13:20.562Z,8840.00
2019-03-18T12:14:20.601Z,8728.00
2019-03-18T12:15:21.680Z,8852.00
2019-03-18T12:16:20.681Z,9096.00
2019-03-18T12:17:20.720Z,10016.00
2019-03-18T12:18:20.759Z,11080.00
2019-03-18T12:19:23.029Z,11520.00
2019-03-18T12:20:24.922Z,10136.00
2019-03-18T12:21:20.879Z,7352.00
2019-03-18T12:22:20.918Z,4944.00
2019-03-18T12:23:20.965Z,3564.00
2019-03-18T12:24:20.999Z,2868.00
2019-03-18T12:25:21.037Z,2348.00
2019-03-18T12:26:21.079Z,1960.00
2019-03-18T12:27:21.118Z,1760.00
2019-03-18T12:28:21.160Z,1712.00
2019-03-18T12:29:21.201Z,1680.00
2019-03-18T12:30:21.242Z,2344.00
2019-03-18T12:31:21.282Z,4012.00
2019-03-18T12:32:21.325Z,6040.00
2019-03-18T12:33:21.416Z,7728.00